Accueil
METAR-TAF:

METAR-TAF

Aéroports :

Aéroport de Londres-Gatwick

Londres-Gatwick, Angleterre

latitude: 51-09N, longitude: 000-11W, altitude: 62 m

Observation

Le bulletin a été fait il y a 23 minutes, à 01:20 UTC
Vent 1 kt de sud/sud-ouest
Température 0°C
Humidité 80%
Pression 1030 hPa
Visibilité 10 km ou plus
pas de nuages en-dessous de 1500 mètres et pas de cumulonimbus.

METAR: EGKK 170120Z 20001KT CAVOK 00/M03 Q1030

Heure: 02:43 (01:43 UTC)

Prévision

Le bulletin a été fait il y a 2 heures et 48 minutes, à 22:55 UTC
Prévision valable du 17 à 00 UTC au 18 à 06 UTC
Vent 4 kt de nord-est
Visibilité 10 km ou plus
Quelques nuages à une hauteur de 3500 ft
Probabilité 40%
du 17 à 02 UTC au 17 à 08 UTC
Visibilité: 7000 m

TAF: EGKK 162255Z 1700/1806 04004KT 9999 FEW035 PROB40 1702/1708 7000

Observations et prévisions météorologiques de plus de 4000 aéroports (messages METAR et TAF).

Les stations disponibles sont représentées par des disques jaunes et rouges sur la carte.

Passer la souris dessus pour voir le nom de la station.

Cliquer dessus pour voir les observations et prévisions météorologiques.

Pour changer de carte: cliquez sur les boutons verts avec une croix noire pour zoomer, sur le bouton vert avec un tiret pour effectuer un zoom arrière, ou sur les flèches vertes pour les cartes adjacentes.


METAR-TAF: